sensor_id;sensor_type;location;lat;lon;timestamp;pressure;altitude;pressure_sealevel;temperature;humidity
31483;BME280;18103;52.246;8.052;2024-03-25T00:01:55;99036.75;;;4.58;100.00
31483;BME280;18103;52.246;8.052;2024-03-25T00:04:23;99039.34;;;4.47;100.00
31483;BME280;18103;52.246;8.052;2024-03-25T00:06:51;99035.56;;;4.51;100.00
31483;BME280;18103;52.246;8.052;2024-03-25T00:09:19;99044.22;;;4.51;100.00
31483;BME280;18103;52.246;8.052;2024-03-25T00:11:48;99045.63;;;4.44;100.00
31483;BME280;18103;52.246;8.052;2024-03-25T00:14:13;99048.75;;;4.49;100.00
31483;BME280;18103;52.246;8.052;2024-03-25T00:16:41;99054.53;;;4.41;100.00
31483;BME280;18103;52.246;8.052;2024-03-25T00:19:11;99046.22;;;4.48;100.00
31483;BME280;18103;52.246;8.052;2024-03-25T00:21:36;99051.44;;;4.48;100.00
31483;BME280;18103;52.246;8.052;2024-03-25T00:24:02;99050.34;;;4.39;100.00
31483;BME280;18103;52.246;8.052;2024-03-25T00:26:27;99060.56;;;4.42;100.00
31483;BME280;18103;52.246;8.052;2024-03-25T00:28:52;99051.56;;;4.46;100.00
31483;BME280;18103;52.246;8.052;2024-03-25T00:31:20;99056.63;;;4.36;100.00
31483;BME280;18103;52.246;8.052;2024-03-25T00:33:50;99060.28;;;4.34;100.00
31483;BME280;18103;52.246;8.052;2024-03-25T00:36:20;99058.00;;;4.53;100.00
31483;BME280;18103;52.246;8.052;2024-03-25T00:38:48;99059.34;;;4.35;100.00
31483;BME280;18103;52.246;8.052;2024-03-25T00:41:16;99062.47;;;4.40;100.00
31483;BME280;18103;52.246;8.052;2024-03-25T00:43:44;99058.19;;;4.39;100.00
31483;BME280;18103;52.246;8.052;2024-03-25T00:46:10;99056.78;;;4.46;100.00
31483;BME280;18103;52.246;8.052;2024-03-25T00:48:35;99066.88;;;4.39;100.00
31483;BME280;18103;52.246;8.052;2024-03-25T00:51:02;99059.34;;;4.35;100.00
31483;BME280;18103;52.246;8.052;2024-03-25T00:53:28;99060.44;;;4.43;100.00
31483;BME280;18103;52.246;8.052;2024-03-25T00:55:58;99056.91;;;4.44;100.00
31483;BME280;18103;52.246;8.052;2024-03-25T00:58:26;99063.28;;;4.40;100.00
31483;BME280;18103;52.246;8.052;2024-03-25T01:00:51;99068.09;;;4.47;100.00
31483;BME280;18103;52.246;8.052;2024-03-25T01:03:17;99059.50;;;4.44;100.00
31483;BME280;18103;52.246;8.052;2024-03-25T01:05:45;99060.00;;;4.50;100.00
31483;BME280;18103;52.246;8.052;2024-03-25T01:08:10;99063.91;;;4.44;100.00
31483;BME280;18103;52.246;8.052;2024-03-25T01:10:39;99075.06;;;4.46;100.00
31483;BME280;18103;52.246;8.052;2024-03-25T01:13:07;99071.38;;;4.37;100.00
31483;BME280;18103;52.246;8.052;2024-03-25T01:15:32;99064.69;;;4.33;100.00
31483;BME280;18103;52.246;8.052;2024-03-25T01:18:02;99063.53;;;4.37;100.00
31483;BME280;18103;52.246;8.052;2024-03-25T01:20:30;99075.66;;;4.38;100.00
31483;BME280;18103;52.246;8.052;2024-03-25T01:22:56;99070.47;;;4.50;100.00
31483;BME280;18103;52.246;8.052;2024-03-25T01:25:23;99072.81;;;4.41;100.00
31483;BME280;18103;52.246;8.052;2024-03-25T01:27:49;99071.47;;;4.36;100.00
31483;BME280;18103;52.246;8.052;2024-03-25T01:30:14;99073.75;;;4.40;100.00
31483;BME280;18103;52.246;8.052;2024-03-25T01:32:39;99075.41;;;4.41;100.00
31483;BME280;18103;52.246;8.052;2024-03-25T01:35:05;99076.25;;;4.42;100.00
31483;BME280;18103;52.246;8.052;2024-03-25T01:37:34;99085.41;;;4.48;100.00
31483;BME280;18103;52.246;8.052;2024-03-25T01:40:02;99078.97;;;4.40;100.00
31483;BME280;18103;52.246;8.052;2024-03-25T01:42:30;99076.47;;;4.39;100.00
31483;BME280;18103;52.246;8.052;2024-03-25T01:44:55;99080.88;;;4.38;100.00
31483;BME280;18103;52.246;8.052;2024-03-25T01:47:25;99086.34;;;4.35;100.00
31483;BME280;18103;52.246;8.052;2024-03-25T01:49:50;99086.22;;;4.37;100.00
31483;BME280;18103;52.246;8.052;2024-03-25T01:52:19;99083.38;;;4.40;100.00
31483;BME280;18103;52.246;8.052;2024-03-25T01:54:50;99090.28;;;4.41;100.00
31483;BME280;18103;52.246;8.052;2024-03-25T01:57:20;99093.00;;;4.39;100.00
31483;BME280;18103;52.246;8.052;2024-03-25T01:59:48;99089.88;;;4.34;100.00
31483;BME280;18103;52.246;8.052;2024-03-25T02:02:16;99100.38;;;4.45;100.00
31483;BME280;18103;52.246;8.052;2024-03-25T02:04:42;99093.44;;;4.33;100.00
31483;BME280;18103;52.246;8.052;2024-03-25T02:07:08;99094.72;;;4.27;100.00
31483;BME280;18103;52.246;8.052;2024-03-25T02:09:41;99099.28;;;4.37;100.00
31483;BME280;18103;52.246;8.052;2024-03-25T02:12:07;99100.44;;;4.33;100.00
31483;BME280;18103;52.246;8.052;2024-03-25T02:14:36;99102.59;;;4.39;100.00
31483;BME280;18103;52.246;8.052;2024-03-25T02:17:05;99109.34;;;4.30;100.00
31483;BME280;18103;52.246;8.052;2024-03-25T02:19:35;99105.78;;;4.31;100.00
31483;BME280;18103;52.246;8.052;2024-03-25T02:22:04;99107.66;;;4.29;100.00
31483;BME280;18103;52.246;8.052;2024-03-25T02:24:31;99112.00;;;4.41;100.00
31483;BME280;18103;52.246;8.052;2024-03-25T02:26:57;99108.41;;;4.31;100.00
31483;BME280;18103;52.246;8.052;2024-03-25T02:29:34;99113.09;;;4.26;100.00
31483;BME280;18103;52.246;8.052;2024-03-25T02:32:00;99110.28;;;4.29;100.00
31483;BME280;18103;52.246;8.052;2024-03-25T02:34:25;99108.16;;;4.34;100.00
31483;BME280;18103;52.246;8.052;2024-03-25T02:36:56;99103.06;;;4.33;100.00
31483;BME280;18103;52.246;8.052;2024-03-25T02:39:21;99103.06;;;4.33;100.00
31483;BME280;18103;52.246;8.052;2024-03-25T02:41:49;99109.75;;;4.24;100.00
31483;BME280;18103;52.246;8.052;2024-03-25T02:44:18;99106.94;;;4.27;100.00
31483;BME280;18103;52.246;8.052;2024-03-25T02:46:46;99113.38;;;4.34;100.00
31483;BME280;18103;52.246;8.052;2024-03-25T02:49:12;99111.59;;;4.35;100.00
31483;BME280;18103;52.246;8.052;2024-03-25T02:51:37;99117.38;;;4.51;100.00
31483;BME280;18103;52.246;8.052;2024-03-25T02:54:08;99109.66;;;4.50;100.00
31483;BME280;18103;52.246;8.052;2024-03-25T02:56:39;99107.75;;;4.52;100.00
31483;BME280;18103;52.246;8.052;2024-03-25T02:59:07;99112.16;;;4.51;100.00
31483;BME280;18103;52.246;8.052;2024-03-25T03:01:32;99119.44;;;4.59;100.00
31483;BME280;18103;52.246;8.052;2024-03-25T03:03:58;99124.56;;;4.60;100.00
31483;BME280;18103;52.246;8.052;2024-03-25T03:06:23;99123.59;;;4.61;100.00
31483;BME280;18103;52.246;8.052;2024-03-25T03:08:51;99127.16;;;4.60;100.00
31483;BME280;18103;52.246;8.052;2024-03-25T03:11:18;99131.28;;;4.52;100.00
31483;BME280;18103;52.246;8.052;2024-03-25T03:13:44;99137.66;;;4.48;100.00
31483;BME280;18103;52.246;8.052;2024-03-25T03:16:11;99132.78;;;4.43;100.00
31483;BME280;18103;52.246;8.052;2024-03-25T03:18:37;99128.78;;;4.50;100.00
31483;BME280;18103;52.246;8.052;2024-03-25T03:21:02;99129.63;;;4.51;100.00
31483;BME280;18103;52.246;8.052;2024-03-25T03:23:28;99130.16;;;4.43;100.00
31483;BME280;18103;52.246;8.052;2024-03-25T03:25:53;99127.38;;;4.33;100.00
31483;BME280;18103;52.246;8.052;2024-03-25T03:28:19;99133.41;;;4.47;100.00
31483;BME280;18103;52.246;8.052;2024-03-25T03:30:44;99133.06;;;4.51;100.00
31483;BME280;18103;52.246;8.052;2024-03-25T03:33:11;99126.22;;;4.37;100.00
31483;BME280;18103;52.246;8.052;2024-03-25T03:35:37;99134.53;;;4.31;100.00
31483;BME280;18103;52.246;8.052;2024-03-25T03:38:05;99134.41;;;4.33;100.00
31483;BME280;18103;52.246;8.052;2024-03-25T03:40:32;99138.47;;;4.37;100.00
31483;BME280;18103;52.246;8.052;2024-03-25T03:43:02;99132.50;;;4.35;100.00
31483;BME280;18103;52.246;8.052;2024-03-25T03:45:33;99132.38;;;4.36;100.00
31483;BME280;18103;52.246;8.052;2024-03-25T03:47:58;99140.44;;;4.33;100.00
31483;BME280;18103;52.246;8.052;2024-03-25T03:50:24;99139.06;;;4.40;100.00
31483;BME280;18103;52.246;8.052;2024-03-25T03:52:49;99139.41;;;4.36;100.00
31483;BME280;18103;52.246;8.052;2024-03-25T03:55:14;99144.50;;;4.37;100.00
31483;BME280;18103;52.246;8.052;2024-03-25T03:57:40;99143.28;;;4.30;100.00
31483;BME280;18103;52.246;8.052;2024-03-25T04:00:09;99139.41;;;4.36;100.00
31483;BME280;18103;52.246;8.052;2024-03-25T04:02:39;99142.84;;;4.36;100.00
31483;BME280;18103;52.246;8.052;2024-03-25T04:05:07;99144.75;;;4.34;100.00
31483;BME280;18103;52.246;8.052;2024-03-25T04:07:35;99141.50;;;4.31;100.00
31483;BME280;18103;52.246;8.052;2024-03-25T04:10:00;99140.69;;;4.30;100.00
31483;BME280;18103;52.246;8.052;2024-03-25T04:12:31;99148.22;;;4.22;100.00
31483;BME280;18103;52.246;8.052;2024-03-25T04:14:57;99150.00;;;4.21;100.00
31483;BME280;18103;52.246;8.052;2024-03-25T04:17:22;99142.28;;;4.20;100.00
31483;BME280;18103;52.246;8.052;2024-03-25T04:19:51;99152.28;;;4.26;100.00
31483;BME280;18103;52.246;8.052;2024-03-25T04:22:18;99148.41;;;4.32;100.00
31483;BME280;18103;52.246;8.052;2024-03-25T04:24:49;99148.56;;;4.17;100.00
31483;BME280;18103;52.246;8.052;2024-03-25T04:27:16;99157.75;;;4.23;100.00
31483;BME280;18103;52.246;8.052;2024-03-25T04:29:50;99157.75;;;4.23;100.00
31483;BME280;18103;52.246;8.052;2024-03-25T04:32:16;99162.91;;;4.11;100.00
31483;BME280;18103;52.246;8.052;2024-03-25T04:34:46;99152.63;;;4.08;100.00
31483;BME280;18103;52.246;8.052;2024-03-25T04:37:14;99162.25;;;4.08;100.00
31483;BME280;18103;52.246;8.052;2024-03-25T04:39:40;99162.66;;;4.15;100.00
31483;BME280;18103;52.246;8.052;2024-03-25T04:42:10;99172.28;;;4.01;100.00
31483;BME280;18103;52.246;8.052;2024-03-25T04:44:42;99171.03;;;4.07;100.00
31483;BME280;18103;52.246;8.052;2024-03-25T04:47:08;99174.72;;;3.91;100.00
31483;BME280;18103;52.246;8.052;2024-03-25T04:49:36;99180.13;;;4.01;100.00
31483;BME280;18103;52.246;8.052;2024-03-25T04:52:03;99183.91;;;3.97;100.00
31483;BME280;18103;52.246;8.052;2024-03-25T04:54:36;99181.41;;;3.96;100.00
31483;BME280;18103;52.246;8.052;2024-03-25T04:57:04;99178.75;;;4.08;100.00
31483;BME280;18103;52.246;8.052;2024-03-25T04:59:33;99178.28;;;3.90;100.00
31483;BME280;18103;52.246;8.052;2024-03-25T05:02:01;99186.81;;;4.05;100.00
31483;BME280;18103;52.246;8.052;2024-03-25T05:04:29;99183.91;;;3.97;100.00
31483;BME280;18103;52.246;8.052;2024-03-25T05:06:57;99178.63;;;4.23;100.00
31483;BME280;18103;52.246;8.052;2024-03-25T05:09:27;99176.25;;;4.07;100.00
31483;BME280;18103;52.246;8.052;2024-03-25T05:11:55;99176.53;;;4.15;100.00
31483;BME280;18103;52.246;8.052;2024-03-25T05:14:23;99184.69;;;4.23;100.00
31483;BME280;18103;52.246;8.052;2024-03-25T05:16:48;99180.72;;;4.18;100.00
31483;BME280;18103;52.246;8.052;2024-03-25T05:19:14;99185.34;;;4.14;100.00
31483;BME280;18103;52.246;8.052;2024-03-25T05:21:42;99188.59;;;4.05;100.00
31483;BME280;18103;52.246;8.052;2024-03-25T05:24:10;99186.28;;;4.13;100.00
31483;BME280;18103;52.246;8.052;2024-03-25T05:26:38;99194.94;;;4.14;100.00
31483;BME280;18103;52.246;8.052;2024-03-25T05:29:03;99192.81;;;4.32;100.00
31483;BME280;18103;52.246;8.052;2024-03-25T05:31:29;99193.34;;;4.24;100.00
31483;BME280;18103;52.246;8.052;2024-03-25T05:34:00;99199.81;;;4.31;100.00
31483;BME280;18103;52.246;8.052;2024-03-25T05:36:27;99201.69;;;4.29;100.00
31483;BME280;18103;52.246;8.052;2024-03-25T05:38:53;99199.75;;;4.20;100.00
31483;BME280;18103;52.246;8.052;2024-03-25T05:41:18;99205.94;;;4.06;100.00
31483;BME280;18103;52.246;8.052;2024-03-25T05:43:44;99199.75;;;4.07;100.00
31483;BME280;18103;52.246;8.052;2024-03-25T05:46:09;99201.94;;;4.13;100.00
31483;BME280;18103;52.246;8.052;2024-03-25T05:48:34;99196.34;;;4.31;100.00
31483;BME280;18103;52.246;8.052;2024-03-25T05:51:03;99194.19;;;4.24;100.00
31483;BME280;18103;52.246;8.052;2024-03-25T05:53:37;99197.22;;;4.31;100.00
31483;BME280;18103;52.246;8.052;2024-03-25T05:56:05;99213.94;;;4.28;100.00
31483;BME280;18103;52.246;8.052;2024-03-25T05:58:33;99220.00;;;4.16;100.00
31483;BME280;18103;52.246;8.052;2024-03-25T06:01:00;99218.53;;;4.25;100.00
31483;BME280;18103;52.246;8.052;2024-03-25T06:03:32;99225.09;;;4.31;100.00
31483;BME280;18103;52.246;8.052;2024-03-25T06:05:57;99224.59;;;4.25;100.00
31483;BME280;18103;52.246;8.052;2024-03-25T06:08:25;99223.44;;;4.17;100.00
31483;BME280;18103;52.246;8.052;2024-03-25T06:10:51;99227.09;;;4.27;100.00
31483;BME280;18103;52.246;8.052;2024-03-25T06:13:18;99216.34;;;4.19;100.00
31483;BME280;18103;52.246;8.052;2024-03-25T06:15:49;99217.28;;;4.18;100.00
31483;BME280;18103;52.246;8.052;2024-03-25T06:18:14;99232.50;;;4.24;100.00
31483;BME280;18103;52.246;8.052;2024-03-25T06:20:39;99234.06;;;4.26;100.00
31483;BME280;18103;52.246;8.052;2024-03-25T06:23:07;99235.03;;;4.25;100.00
31483;BME280;18103;52.246;8.052;2024-03-25T06:25:37;99234.84;;;4.16;100.00
31483;BME280;18103;52.246;8.052;2024-03-25T06:28:03;99225.94;;;4.18;100.00
31483;BME280;18103;52.246;8.052;2024-03-25T06:30:35;99227.03;;;4.16;100.00
31483;BME280;18103;52.246;8.052;2024-03-25T06:33:20;99233.97;;;4.28;100.00
31483;BME280;18103;52.246;8.052;2024-03-25T06:36:04;99234.31;;;4.23;100.00
31483;BME280;18103;52.246;8.052;2024-03-25T06:38:32;99235.44;;;4.32;100.00
31483;BME280;18103;52.246;8.052;2024-03-25T06:41:00;99230.88;;;4.23;100.00
31483;BME280;18103;52.246;8.052;2024-03-25T06:43:25;99237.66;;;4.25;100.00
31483;BME280;18103;52.246;8.052;2024-03-25T06:45:53;99240.69;;;4.19;100.00
31483;BME280;18103;52.246;8.052;2024-03-25T06:48:18;99239.94;;;4.30;100.00
31483;BME280;18103;52.246;8.052;2024-03-25T06:50:52;99237.22;;;4.32;100.00
31483;BME280;18103;52.246;8.052;2024-03-25T06:53:20;99245.56;;;4.24;100.00
31483;BME280;18103;52.246;8.052;2024-03-25T06:55:56;99239.56;;;4.48;100.00
31483;BME280;18103;52.246;8.052;2024-03-25T06:58:25;99248.25;;;4.48;100.00
31483;BME280;18103;52.246;8.052;2024-03-25T07:00:54;99253.69;;;4.45;100.00
31483;BME280;18103;52.246;8.052;2024-03-25T07:03:23;99250.56;;;4.40;100.00
31483;BME280;18103;52.246;8.052;2024-03-25T07:05:51;99250.25;;;4.44;100.00
31483;BME280;18103;52.246;8.052;2024-03-25T07:08:23;99254.41;;;4.47;100.00
31483;BME280;18103;52.246;8.052;2024-03-25T07:10:51;99255.75;;;4.53;100.00
31483;BME280;18103;52.246;8.052;2024-03-25T07:13:18;99253.25;;;4.51;100.00
31483;BME280;18103;52.246;8.052;2024-03-25T07:15:43;99254.59;;;4.57;100.00
31483;BME280;18103;52.246;8.052;2024-03-25T07:18:11;99251.75;;;4.60;100.00
31483;BME280;18103;52.246;8.052;2024-03-25T07:20:43;99256.69;;;4.65;100.00
31483;BME280;18103;52.246;8.052;2024-03-25T07:23:09;99252.16;;;4.67;100.00
31483;BME280;18103;52.246;8.052;2024-03-25T07:25:34;99257.91;;;4.72;100.00
31483;BME280;18103;52.246;8.052;2024-03-25T07:28:01;99261.69;;;4.68;100.00
31483;BME280;18103;52.246;8.052;2024-03-25T07:30:29;99264.25;;;4.80;100.00
31483;BME280;18103;52.246;8.052;2024-03-25T07:33:00;99261.00;;;4.77;100.00
31483;BME280;18103;52.246;8.052;2024-03-25T07:35:25;99263.78;;;4.87;100.00
31483;BME280;18103;52.246;8.052;2024-03-25T07:37:58;99268.84;;;4.77;100.00
31483;BME280;18103;52.246;8.052;2024-03-25T07:40:28;99269.06;;;4.74;100.00
31483;BME280;18103;52.246;8.052;2024-03-25T07:42:56;99268.13;;;4.75;100.00
31483;BME280;18103;52.246;8.052;2024-03-25T07:45:21;99274.19;;;4.75;100.00
31483;BME280;18103;52.246;8.052;2024-03-25T07:47:52;99273.41;;;4.86;100.00
31483;BME280;18103;52.246;8.052;2024-03-25T07:50:19;99272.88;;;4.94;100.00
31483;BME280;18103;52.246;8.052;2024-03-25T07:52:45;99264.47;;;5.02;100.00
31483;BME280;18103;52.246;8.052;2024-03-25T07:55:12;99270.97;;;4.96;100.00
31483;BME280;18103;52.246;8.052;2024-03-25T07:57:42;99259.75;;;5.07;100.00
31483;BME280;18103;52.246;8.052;2024-03-25T08:00:08;99263.81;;;5.11;100.00
31483;BME280;18103;52.246;8.052;2024-03-25T08:02:37;99268.19;;;5.10;100.00
31483;BME280;18103;52.246;8.052;2024-03-25T08:05:05;99264.75;;;5.10;99.69
31483;BME280;18103;52.246;8.052;2024-03-25T08:07:33;99274.69;;;5.05;100.00
31483;BME280;18103;52.246;8.052;2024-03-25T08:10:01;99267.97;;;5.13;99.96
31483;BME280;18103;52.246;8.052;2024-03-25T08:12:28;99271.81;;;5.21;99.74
31483;BME280;18103;52.246;8.052;2024-03-25T08:14:53;99277.78;;;5.34;99.18
31483;BME280;18103;52.246;8.052;2024-03-25T08:17:21;99281.69;;;5.28;98.88
31483;BME280;18103;52.246;8.052;2024-03-25T08:19:48;99287.06;;;5.38;98.87
31483;BME280;18103;52.246;8.052;2024-03-25T08:22:16;99294.69;;;5.41;99.45
31483;BME280;18103;52.246;8.052;2024-03-25T08:24:44;99291.31;;;5.63;99.83
31483;BME280;18103;52.246;8.052;2024-03-25T08:27:09;99281.56;;;5.54;99.55
31483;BME280;18103;52.246;8.052;2024-03-25T08:29:37;99280.59;;;5.55;98.61
31483;BME280;18103;52.246;8.052;2024-03-25T08:32:03;99287.38;;;5.58;97.68
31483;BME280;18103;52.246;8.052;2024-03-25T08:34:31;99286.56;;;5.69;98.33
31483;BME280;18103;52.246;8.052;2024-03-25T08:37:00;99290.28;;;5.77;98.37
31483;BME280;18103;52.246;8.052;2024-03-25T08:39:29;99292.06;;;5.77;98.99
31483;BME280;18103;52.246;8.052;2024-03-25T08:41:54;99295.06;;;5.83;97.83
31483;BME280;18103;52.246;8.052;2024-03-25T08:44:22;99299.22;;;5.86;98.63
31483;BME280;18103;52.246;8.052;2024-03-25T08:46:49;99289.34;;;5.90;98.41
31483;BME280;18103;52.246;8.052;2024-03-25T08:49:15;99294.69;;;5.77;96.84
31483;BME280;18103;52.246;8.052;2024-03-25T08:51:42;99288.03;;;5.84;97.52
31483;BME280;18103;52.246;8.052;2024-03-25T08:54:08;99291.59;;;5.94;96.51
31483;BME280;18103;52.246;8.052;2024-03-25T08:56:33;99293.53;;;5.92;96.78
31483;BME280;18103;52.246;8.052;2024-03-25T08:58:58;99295.19;;;5.82;96.21
31483;BME280;18103;52.246;8.052;2024-03-25T09:01:26;99289.59;;;5.87;94.99
31483;BME280;18103;52.246;8.052;2024-03-25T09:03:51;99295.31;;;5.92;94.19
31483;BME280;18103;52.246;8.052;2024-03-25T09:06:17;99294.22;;;5.94;93.63
31483;BME280;18103;52.246;8.052;2024-03-25T09:08:45;99285.22;;;5.98;92.90
31483;BME280;18103;52.246;8.052;2024-03-25T09:11:31;99289.88;;;6.06;91.44
31483;BME280;18103;52.246;8.052;2024-03-25T09:14:01;99293.69;;;6.25;91.10
31483;BME280;18103;52.246;8.052;2024-03-25T09:16:31;99285.59;;;6.28;91.88
31483;BME280;18103;52.246;8.052;2024-03-25T09:18:57;99297.38;;;6.22;92.08
31483;BME280;18103;52.246;8.052;2024-03-25T09:21:24;99291.56;;;6.41;94.10
31483;BME280;18103;52.246;8.052;2024-03-25T09:23:52;99290.00;;;6.50;93.83
31483;BME280;18103;52.246;8.052;2024-03-25T09:26:23;99290.00;;;6.27;90.74
31483;BME280;18103;52.246;8.052;2024-03-25T09:28:51;99300.13;;;6.32;91.11
31483;BME280;18103;52.246;8.052;2024-03-25T09:31:17;99296.56;;;6.33;92.81
31483;BME280;18103;52.246;8.052;2024-03-25T09:33:44;99295.25;;;6.39;92.35
31483;BME280;18103;52.246;8.052;2024-03-25T09:36:12;99296.53;;;6.56;92.31
31483;BME280;18103;52.246;8.052;2024-03-25T09:38:38;99292.72;;;6.60;92.61
31483;BME280;18103;52.246;8.052;2024-03-25T09:41:03;99287.00;;;6.66;92.21
31483;BME280;18103;52.246;8.052;2024-03-25T09:43:55;99293.06;;;6.66;90.59
31483;BME280;18103;52.246;8.052;2024-03-25T09:46:26;99293.19;;;6.65;90.29
31483;BME280;18103;52.246;8.052;2024-03-25T09:48:57;99284.69;;;6.95;90.61
31483;BME280;18103;52.246;8.052;2024-03-25T09:51:24;99279.56;;;7.26;88.61
31483;BME280;18103;52.246;8.052;2024-03-25T09:53:50;99288.34;;;7.36;88.27
31483;BME280;18103;52.246;8.052;2024-03-25T09:56:16;99288.34;;;7.36;87.80
31483;BME280;18103;52.246;8.052;2024-03-25T09:58:46;99292.88;;;7.34;86.76
31483;BME280;18103;52.246;8.052;2024-03-25T10:01:16;99298.75;;;7.27;87.47
31483;BME280;18103;52.246;8.052;2024-03-25T10:03:46;99293.56;;;7.15;86.57
31483;BME280;18103;52.246;8.052;2024-03-25T10:06:12;99284.56;;;7.29;86.82
31483;BME280;18103;52.246;8.052;2024-03-25T10:08:38;99278.56;;;7.27;86.48
31483;BME280;18103;52.246;8.052;2024-03-25T10:11:06;99290.09;;;7.15;87.17
31483;BME280;18103;52.246;8.052;2024-03-25T10:13:32;99283.13;;;7.25;86.32
31483;BME280;18103;52.246;8.052;2024-03-25T10:15:57;99287.66;;;7.23;85.49
31483;BME280;18103;52.246;8.052;2024-03-25T10:18:23;99286.38;;;7.17;84.23
31483;BME280;18103;52.246;8.052;2024-03-25T10:20:52;99283.75;;;7.17;84.91
31483;BME280;18103;52.246;8.052;2024-03-25T10:23:23;99282.72;;;7.09;83.66
31483;BME280;18103;52.246;8.052;2024-03-25T10:25:54;99283.41;;;7.22;85.04
31483;BME280;18103;52.246;8.052;2024-03-25T10:28:19;99289.03;;;7.06;83.31
31483;BME280;18103;52.246;8.052;2024-03-25T10:30:45;99286.75;;;7.13;82.70
31483;BME280;18103;52.246;8.052;2024-03-25T10:33:13;99289.84;;;7.18;81.91
31483;BME280;18103;52.246;8.052;2024-03-25T10:35:40;99284.69;;;7.28;81.42
31483;BME280;18103;52.246;8.052;2024-03-25T10:38:09;99287.19;;;7.29;83.34
31483;BME280;18103;52.246;8.052;2024-03-25T10:40:39;99295.50;;;7.34;82.47
31483;BME280;18103;52.246;8.052;2024-03-25T10:43:09;99285.88;;;7.24;83.24
31483;BME280;18103;52.246;8.052;2024-03-25T10:45:46;99288.94;;;7.29;82.75
31483;BME280;18103;52.246;8.052;2024-03-25T10:48:17;99294.47;;;7.47;83.00
31483;BME280;18103;52.246;8.052;2024-03-25T10:50:47;99287.75;;;7.33;84.30
31483;BME280;18103;52.246;8.052;2024-03-25T10:53:17;99288.13;;;7.28;81.46
31483;BME280;18103;52.246;8.052;2024-03-25T10:55:47;99293.91;;;7.43;82.66
31483;BME280;18103;52.246;8.052;2024-03-25T10:58:16;99285.03;;;7.23;81.13
31483;BME280;18103;52.246;8.052;2024-03-25T11:00:45;99279.84;;;7.12;80.17
31483;BME280;18103;52.246;8.052;2024-03-25T11:03:13;99275.25;;;7.25;83.23
31483;BME280;18103;52.246;8.052;2024-03-25T11:05:41;99283.06;;;7.15;81.68
31483;BME280;18103;52.246;8.052;2024-03-25T11:10:41;99274.16;;;7.07;79.56
31483;BME280;18103;52.246;8.052;2024-03-25T11:13:18;99273.13;;;7.19;79.77
31483;BME280;18103;52.246;8.052;2024-03-25T11:15:49;99266.88;;;7.31;82.85
31483;BME280;18103;52.246;8.052;2024-03-25T11:18:22;99262.84;;;7.48;82.89
31483;BME280;18103;52.246;8.052;2024-03-25T11:21:09;99257.66;;;7.58;81.21
31483;BME280;18103;52.246;8.052;2024-03-25T11:23:41;99253.13;;;7.60;79.07
31483;BME280;18103;52.246;8.052;2024-03-25T11:26:26;99252.41;;;7.79;77.19
31483;BME280;18103;52.246;8.052;2024-03-25T11:28:55;99251.25;;;8.03;75.67
31483;BME280;18103;52.246;8.052;2024-03-25T11:31:21;99257.25;;;8.05;75.79
31483;BME280;18103;52.246;8.052;2024-03-25T11:33:49;99261.00;;;8.12;75.40
31483;BME280;18103;52.246;8.052;2024-03-25T11:36:15;99251.56;;;8.10;77.51
31483;BME280;18103;52.246;8.052;2024-03-25T11:38:43;99244.91;;;8.05;76.05
31483;BME280;18103;52.246;8.052;2024-03-25T11:41:12;99249.97;;;8.18;77.75
31483;BME280;18103;52.246;8.052;2024-03-25T11:43:37;99246.31;;;8.10;76.35
31483;BME280;18103;52.246;8.052;2024-03-25T11:46:05;99238.03;;;8.04;75.35
31483;BME280;18103;52.246;8.052;2024-03-25T11:48:36;99242.19;;;8.17;78.21
31483;BME280;18103;52.246;8.052;2024-03-25T11:51:05;99238.13;;;8.34;76.22
31483;BME280;18103;52.246;8.052;2024-03-25T11:53:31;99239.75;;;8.25;78.89
31483;BME280;18103;52.246;8.052;2024-03-25T11:55:58;99220.97;;;8.30;77.93
31483;BME280;18103;52.246;8.052;2024-03-25T11:58:27;99218.72;;;8.25;78.67
31483;BME280;18103;52.246;8.052;2024-03-25T12:00:54;99222.56;;;8.21;75.96
31483;BME280;18103;52.246;8.052;2024-03-25T12:03:22;99218.34;;;8.39;74.06
31483;BME280;18103;52.246;8.052;2024-03-25T12:05:49;99209.81;;;8.47;73.97
31483;BME280;18103;52.246;8.052;2024-03-25T12:08:17;99208.75;;;8.69;74.23
31483;BME280;18103;52.246;8.052;2024-03-25T12:10:45;99199.03;;;8.80;71.60
31483;BME280;18103;52.246;8.052;2024-03-25T12:13:29;99196.16;;;8.93;72.28
31483;BME280;18103;52.246;8.052;2024-03-25T12:15:54;99194.88;;;8.97;72.86
31483;BME280;18103;52.246;8.052;2024-03-25T12:18:22;99194.47;;;9.31;69.80
31483;BME280;18103;52.246;8.052;2024-03-25T12:20:50;99186.19;;;8.96;70.30
31483;BME280;18103;52.246;8.052;2024-03-25T12:23:19;99188.09;;;9.23;72.51
31483;BME280;18103;52.246;8.052;2024-03-25T12:25:49;99185.88;;;9.29;69.66
31483;BME280;18103;52.246;8.052;2024-03-25T12:28:18;99177.53;;;9.43;72.59
31483;BME280;18103;52.246;8.052;2024-03-25T12:30:53;99179.19;;;9.44;69.45
31483;BME280;18103;52.246;8.052;2024-03-25T12:33:20;99180.06;;;9.25;69.05
31483;BME280;18103;52.246;8.052;2024-03-25T12:35:48;99177.09;;;9.48;70.84
31483;BME280;18103;52.246;8.052;2024-03-25T12:38:30;99176.03;;;9.31;68.63
31483;BME280;18103;52.246;8.052;2024-03-25T12:41:12;99177.81;;;9.30;72.77
31483;BME280;18103;52.246;8.052;2024-03-25T12:43:44;99169.28;;;9.08;70.30
31483;BME280;18103;52.246;8.052;2024-03-25T12:46:12;99164.69;;;9.01;69.44
31483;BME280;18103;52.246;8.052;2024-03-25T12:48:40;99161.94;;;9.22;74.63
31483;BME280;18103;52.246;8.052;2024-03-25T12:51:11;99160.63;;;9.26;71.64
31483;BME280;18103;52.246;8.052;2024-03-25T12:53:38;99154.50;;;9.45;75.66
31483;BME280;18103;52.246;8.052;2024-03-25T12:56:06;99154.84;;;9.22;68.48
31483;BME280;18103;52.246;8.052;2024-03-25T12:58:32;99139.50;;;9.08;69.55
31483;BME280;18103;52.246;8.052;2024-03-25T13:01:02;99149.16;;;9.17;67.18
31483;BME280;18103;52.246;8.052;2024-03-25T13:03:27;99154.69;;;9.24;69.34
31483;BME280;18103;52.246;8.052;2024-03-25T13:05:52;99145.84;;;9.25;68.11
31483;BME280;18103;52.246;8.052;2024-03-25T13:08:19;99144.97;;;9.34;66.53
31483;BME280;18103;52.246;8.052;2024-03-25T13:10:44;99148.13;;;9.85;68.42
31483;BME280;18103;52.246;8.052;2024-03-25T13:13:10;99136.41;;;9.70;70.61